Time,TemperatureF,DewpointF,PressureIn,WindDirection,WindDirectionDegrees,WindSpeedMPH,WindSpeedGustMPH,Humidity,HourlyPrecipIn,Conditions,Clouds,dailyrainin,SoftwareType,DateUTC
2017-02-25 00:02:00,66.1,65.5,29.83,WSW,238,0.0,0.0,98,0.00,,---,0.00,VWS V15.00,2017-02-25 06:02:00,
2017-02-25 00:07:00,66.1,65.5,29.83,West,264,0.0,0.0,98,0.00,,---,0.00,VWS V15.00,2017-02-25 06:07:00,
2017-02-25 00:12:00,66.0,65.4,29.83,West,264,0.0,0.0,98,0.00,,---,0.00,VWS V15.00,2017-02-25 06:12:00,
2017-02-25 00:17:00,65.8,65.2,29.84,West,264,0.0,0.0,98,0.00,,---,0.00,VWS V15.00,2017-02-25 06:17:00,
2017-02-25 00:22:00,65.6,65.0,29.84,West,264,0.0,0.0,98,0.00,,---,0.00,VWS V15.00,2017-02-25 06:22:00,
2017-02-25 00:26:00,65.6,65.0,29.84,West,264,0.0,2.0,98,0.00,,---,0.00,VWS V15.00,2017-02-25 06:26:00,
2017-02-25 00:31:00,65.5,65.2,29.84,West,266,0.0,0.0,99,0.00,,---,0.00,VWS V15.00,2017-02-25 06:31:00,
2017-02-25 00:36:00,65.5,65.2,29.84,West,266,0.0,0.0,99,0.00,,---,0.00,VWS V15.00,2017-02-25 06:36:00,
2017-02-25 00:41:00,65.3,65.0,29.84,West,267,0.0,0.0,99,0.00,,---,0.00,VWS V15.00,2017-02-25 06:41:00,
2017-02-25 00:46:00,65.2,64.9,29.84,West,266,1.0,2.0,99,0.00,,---,0.00,VWS V15.00,2017-02-25 06:46:00,
2017-02-25 00:51:00,65.2,64.9,29.84,West,267,0.0,0.0,99,0.00,,---,0.00,VWS V15.00,2017-02-25 06:51:00,
2017-02-25 00:56:00,65.0,64.7,29.84,West,267,0.0,3.0,99,0.00,,---,0.00,VWS V15.00,2017-02-25 06:56:00,
2017-02-25 01:01:00,65.0,64.7,29.85,West,267,4.0,4.0,99,0.00,,---,0.00,VWS V15.00,2017-02-25 07:01:00,
2017-02-25 01:06:00,65.0,64.7,29.85,West,267,0.0,0.0,99,0.00,,---,0.00,VWS V15.00,2017-02-25 07:06:00,
2017-02-25 01:11:00,64.8,64.5,29.85,West,267,0.0,2.0,99,0.00,,---,0.00,VWS V15.00,2017-02-25 07:11:00,
2017-02-25 01:16:00,64.8,64.5,29.84,West,267,0.0,0.0,99,0.00,,---,0.00,VWS V15.00,2017-02-25 07:16:00,
2017-02-25 01:21:00,64.8,64.5,29.84,West,267,0.0,0.0,99,0.00,,---,0.00,VWS V15.00,2017-02-25 07:21:00,
2017-02-25 01:26:00,64.7,64.4,29.84,West,267,0.0,0.0,99,0.00,,---,0.00,VWS V15.00,2017-02-25 07:26:00,
2017-02-25 01:31:00,64.7,64.4,29.85,West,267,0.0,0.0,99,0.00,,---,0.00,VWS V15.00,2017-02-25 07:31:00,
2017-02-25 01:36:00,64.5,64.5,29.85,West,267,0.0,0.0,100,0.00,,---,0.00,VWS V15.00,2017-02-25 07:36:00,
2017-02-25 01:41:00,64.5,64.5,29.85,West,267,0.0,0.0,100,0.00,,---,0.00,VWS V15.00,2017-02-25 07:41:00,
2017-02-25 01:46:00,64.5,64.5,29.85,West,267,0.0,0.0,100,0.00,,---,0.00,VWS V15.00,2017-02-25 07:46:00,
2017-02-25 01:51:00,64.5,64.5,29.85,West,267,0.0,0.0,100,0.00,,---,0.00,VWS V15.00,2017-02-25 07:51:00,
2017-02-25 01:56:00,64.5,64.5,29.85,West,267,0.0,0.0,100,0.00,,---,0.00,VWS V15.00,2017-02-25 07:56:00,
2017-02-25 02:01:00,64.5,64.5,29.85,West,267,0.0,0.0,100,0.00,,---,0.00,VWS V15.00,2017-02-25 08:01:00,
2017-02-25 02:06:00,64.5,64.5,29.85,West,267,0.0,0.0,100,0.00,,---,0.00,VWS V15.00,2017-02-25 08:06:00,
2017-02-25 02:11:00,64.5,64.5,29.85,West,267,0.0,0.0,100,0.00,,---,0.00,VWS V15.00,2017-02-25 08:11:00,
2017-02-25 02:16:00,64.5,64.5,29.85,West,267,0.0,0.0,100,0.00,,---,0.00,VWS V15.00,2017-02-25 08:16:00,
2017-02-25 02:21:00,64.5,64.5,29.85,West,267,0.0,0.0,100,0.00,,---,0.00,VWS V15.00,2017-02-25 08:21:00,
2017-02-25 02:26:00,64.5,64.5,29.85,West,267,0.0,0.0,100,0.00,,---,0.00,VWS V15.00,2017-02-25 08:26:00,
2017-02-25 02:27:00,64.5,64.5,29.85,West,267,0.0,0.0,100,0.00,,---,0.00,VWS V15.00,2017-02-25 08:27:00,
2017-02-25 02:32:00,64.5,64.5,29.85,West,267,0.0,0.0,100,0.00,,---,0.00,VWS V15.00,2017-02-25 08:32:00,
2017-02-25 02:37:00,64.5,64.5,29.85,West,267,0.0,0.0,100,0.00,,---,0.00,VWS V15.00,2017-02-25 08:37:00,
2017-02-25 02:42:00,64.3,64.3,29.85,West,267,0.0,0.0,100,0.00,,---,0.00,VWS V15.00,2017-02-25 08:42:00,
2017-02-25 02:47:00,64.3,64.3,29.85,West,267,0.0,0.0,100,0.00,,---,0.00,VWS V15.00,2017-02-25 08:47:00,
2017-02-25 02:52:00,64.3,64.3,29.85,NW,317,4.0,4.0,100,0.00,,---,0.00,VWS V15.00,2017-02-25 08:52:00,
2017-02-25 02:57:00,64.7,64.7,29.85,WNW,290,4.0,7.0,100,0.01,,---,0.01,VWS V15.00,2017-02-25 08:57:00,
2017-02-25 03:02:00,64.7,64.7,29.85,NNE,20,1.0,5.0,100,0.01,,---,0.01,VWS V15.00,2017-02-25 09:02:00,
2017-02-25 03:07:00,64.5,64.5,29.85,NW,310,3.0,5.0,100,0.01,,---,0.01,VWS V15.00,2017-02-25 09:07:00,
2017-02-25 03:12:00,64.3,64.3,29.85,NW,304,4.0,7.0,100,0.01,,---,0.01,VWS V15.00,2017-02-25 09:12:00,
2017-02-25 03:17:00,64.2,64.2,29.87,NW,313,3.0,5.0,100,0.01,,---,0.01,VWS V15.00,2017-02-25 09:17:00,
2017-02-25 03:22:00,64.0,64.0,29.87,WNW,296,2.0,4.0,100,0.01,,---,0.01,VWS V15.00,2017-02-25 09:22:00,
2017-02-25 03:27:00,63.9,63.9,29.87,NNW,338,7.0,7.0,100,0.01,,---,0.01,VWS V15.00,2017-02-25 09:27:00,
2017-02-25 03:32:00,63.7,63.7,29.87,NNW,339,4.0,5.0,100,0.01,,---,0.01,VWS V15.00,2017-02-25 09:32:00,
2017-02-25 03:37:00,63.7,63.7,29.87,North,355,10.0,10.0,100,0.01,,---,0.01,VWS V15.00,2017-02-25 09:37:00,
2017-02-25 03:42:00,63.5,63.2,29.87,NNW,327,5.0,9.0,99,0.01,,---,0.01,VWS V15.00,2017-02-25 09:42:00,
2017-02-25 03:47:00,63.4,63.1,29.87,North,5,5.0,11.0,99,0.01,,---,0.01,VWS V15.00,2017-02-25 09:47:00,
2017-02-25 03:52:00,63.2,62.6,29.87,NE,34,5.0,7.0,98,0.01,,---,0.01,VWS V15.00,2017-02-25 09:52:00,
2017-02-25 03:57:00,63.2,62.3,29.87,North,355,4.0,13.0,97,0.00,,---,0.01,VWS V15.00,2017-02-25 09:57:00,
2017-02-25 04:02:00,63.2,62.0,29.87,North,355,2.0,5.0,96,0.00,,---,0.01,VWS V15.00,2017-02-25 10:02:00,
2017-02-25 04:07:00,63.1,61.7,29.87,NNE,26,4.0,10.0,95,0.00,,---,0.01,VWS V15.00,2017-02-25 10:07:00,
2017-02-25 04:12:00,62.9,60.8,29.87,WSW,258,9.0,9.0,93,0.00,,---,0.01,VWS V15.00,2017-02-25 10:12:00,
2017-02-25 04:17:00,62.7,59.7,29.88,NNW,337,11.0,11.0,90,0.00,,---,0.01,VWS V15.00,2017-02-25 10:17:00,
2017-02-25 04:22:00,62.4,58.5,29.88,NW,321,11.0,16.0,87,0.00,,---,0.01,VWS V15.00,2017-02-25 10:22:00,
2017-02-25 04:27:00,62.1,54.8,29.88,NW,312,13.0,13.0,77,0.00,,---,0.01,VWS V15.00,2017-02-25 10:27:00,
2017-02-25 04:32:00,62.0,51.7,29.89,NNW,333,10.0,13.0,69,0.00,,---,0.01,VWS V15.00,2017-02-25 10:32:00,
2017-02-25 04:37:00,62.0,49.7,29.89,ENE,57,13.0,14.0,64,0.00,,---,0.01,VWS V15.00,2017-02-25 10:37:00,
2017-02-25 04:42:00,61.8,49.1,29.89,West,275,0.0,2.0,63,0.00,,---,0.01,VWS V15.00,2017-02-25 10:42:00,
2017-02-25 04:47:00,61.6,48.5,29.90,North,360,12.0,19.0,62,0.00,,---,0.01,VWS V15.00,2017-02-25 10:47:00,
2017-02-25 04:52:00,61.6,48.0,29.90,North,350,6.0,9.0,61,0.00,,---,0.01,VWS V15.00,2017-02-25 10:52:00,
2017-02-25 04:57:00,61.3,47.3,29.90,NW,323,6.0,12.0,60,0.00,,---,0.01,VWS V15.00,2017-02-25 10:57:00,
2017-02-25 05:02:00,61.2,47.7,29.91,NW,317,6.0,6.0,61,0.00,,---,0.01,VWS V15.00,2017-02-25 11:02:00,
2017-02-25 05:07:00,60.9,46.9,29.91,NW,325,2.0,6.0,60,0.00,,---,0.01,VWS V15.00,2017-02-25 11:07:00,
2017-02-25 05:12:00,60.5,45.7,29.91,North,360,3.0,5.0,58,0.00,,---,0.01,VWS V15.00,2017-02-25 11:12:00,
2017-02-25 05:17:00,60.4,45.1,29.92,NNW,328,2.0,13.0,57,0.00,,---,0.01,VWS V15.00,2017-02-25 11:17:00,
2017-02-25 05:22:00,60.1,44.4,29.92,NNW,346,6.0,10.0,56,0.00,,---,0.01,VWS V15.00,2017-02-25 11:22:00,
2017-02-25 05:27:00,59.9,44.2,29.92,WNW,294,3.0,4.0,56,0.00,,---,0.01,VWS V15.00,2017-02-25 11:27:00,
2017-02-25 05:32:00,59.8,44.1,29.93,North,355,0.0,3.0,56,0.00,,---,0.01,VWS V15.00,2017-02-25 11:32:00,
2017-02-25 05:37:00,59.5,43.3,29.93,NNE,16,5.0,7.0,55,0.00,,---,0.01,VWS V15.00,2017-02-25 11:37:00,
2017-02-25 05:42:00,59.3,43.2,29.93,NW,319,4.0,4.0,55,0.00,,---,0.01,VWS V15.00,2017-02-25 11:42:00,
2017-02-25 05:47:00,59.2,43.1,29.93,North,11,1.0,3.0,55,0.00,,---,0.01,VWS V15.00,2017-02-25 11:47:00,
2017-02-25 05:52:00,59.0,43.3,29.93,North,5,6.0,6.0,56,0.00,,---,0.01,VWS V15.00,2017-02-25 11:52:00,
2017-02-25 05:57:00,58.9,42.8,29.93,NNE,15,4.0,4.0,55,0.00,,---,0.01,VWS V15.00,2017-02-25 11:57:00,
2017-02-25 06:02:00,58.7,43.1,29.93,NNW,344,1.0,4.0,56,0.00,,---,0.01,VWS V15.00,2017-02-25 12:02:00,
2017-02-25 06:07:00,58.6,43.0,29.93,North,360,0.0,2.0,56,0.00,,---,0.01,VWS V15.00,2017-02-25 12:07:00,
2017-02-25 06:11:00,58.4,43.2,29.93,NNE,20,0.0,0.0,57,0.00,,---,0.01,VWS V15.00,2017-02-25 12:11:00,
2017-02-25 06:16:00,58.1,43.4,29.94,NNE,29,0.0,0.0,58,0.00,,---,0.01,VWS V15.00,2017-02-25 12:16:00,
2017-02-25 06:21:00,58.0,43.8,29.94,NNE,29,0.0,0.0,59,0.00,,---,0.01,VWS V15.00,2017-02-25 12:21:00,
2017-02-25 06:26:00,57.6,43.4,29.94,NNE,29,3.0,3.0,59,0.00,,---,0.01,VWS V15.00,2017-02-25 12:26:00,
2017-02-25 06:31:00,57.3,43.5,29.95,NNE,29,0.0,0.0,60,0.00,,---,0.01,VWS V15.00,2017-02-25 12:31:00,
2017-02-25 06:36:00,57.2,43.9,29.95,NNE,29,0.0,0.0,61,0.00,,---,0.01,VWS V15.00,2017-02-25 12:36:00,
2017-02-25 06:41:00,56.9,43.6,29.95,NNE,29,0.0,0.0,61,0.00,,---,0.01,VWS V15.00,2017-02-25 12:41:00,
2017-02-25 06:46:00,56.7,43.8,29.96,NNE,29,0.0,0.0,62,0.00,,---,0.01,VWS V15.00,2017-02-25 12:46:00,
2017-02-25 06:51:00,56.5,44.1,29.96,NNE,29,0.0,0.0,63,0.00,,---,0.01,VWS V15.00,2017-02-25 12:51:00,
2017-02-25 06:56:00,56.2,43.8,29.96,NNE,29,0.0,0.0,63,0.00,,---,0.01,VWS V15.00,2017-02-25 12:56:00,
2017-02-25 07:01:00,56.0,43.6,29.96,NNE,19,7.0,7.0,63,0.00,,---,0.01,VWS V15.00,2017-02-25 13:01:00,
2017-02-25 07:06:00,55.9,43.5,29.96,North,5,0.0,0.0,63,0.00,,---,0.01,VWS V15.00,2017-02-25 13:06:00,
2017-02-25 07:11:00,55.9,43.5,29.96,North,5,0.0,0.0,63,0.00,,---,0.01,VWS V15.00,2017-02-25 13:11:00,
2017-02-25 07:16:00,55.9,43.9,29.97,North,5,0.0,0.0,64,0.00,,---,0.01,VWS V15.00,2017-02-25 13:16:00,
2017-02-25 07:21:00,55.9,43.9,29.97,NW,326,0.0,0.0,64,0.00,,---,0.01,VWS V15.00,2017-02-25 13:21:00,
2017-02-25 07:26:00,55.9,43.5,29.97,North,9,4.0,5.0,63,0.00,,---,0.01,VWS V15.00,2017-02-25 13:26:00,
2017-02-25 07:31:00,55.9,43.5,29.98,NNW,333,6.0,6.0,63,0.00,,---,0.01,VWS V15.00,2017-02-25 13:31:00,
2017-02-25 07:36:00,56.2,43.0,29.98,North,5,7.0,11.0,61,0.00,,---,0.01,VWS V15.00,2017-02-25 13:36:00,
2017-02-25 07:41:00,56.5,42.8,29.98,North,350,4.0,8.0,60,0.00,,---,0.01,VWS V15.00,2017-02-25 13:41:00,
2017-02-25 07:46:00,56.7,42.1,29.98,NNE,20,4.0,5.0,58,0.00,,---,0.01,VWS V15.00,2017-02-25 13:46:00,
2017-02-25 07:51:00,57.2,42.1,29.98,North,360,4.0,9.0,57,0.00,,---,0.01,VWS V15.00,2017-02-25 13:51:00,
2017-02-25 07:56:00,57.5,41.9,29.98,NW,315,6.0,7.0,56,0.00,,---,0.01,VWS V15.00,2017-02-25 13:56:00,
2017-02-25 08:01:00,58.0,41.5,29.99,NNW,329,1.0,8.0,54,0.00,,---,0.01,VWS V15.00,2017-02-25 14:01:00,
2017-02-25 08:06:00,58.3,40.8,29.99,NE,39,15.0,15.0,52,0.00,,---,0.01,VWS V15.00,2017-02-25 14:06:00,
2017-02-25 08:11:00,58.6,38.5,29.99,NNW,332,5.0,11.0,47,0.00,,---,0.01,VWS V15.00,2017-02-25 14:11:00,
2017-02-25 08:16:00,58.9,37.0,29.99,NNE,32,9.0,17.0,44,0.00,,---,0.01,VWS V15.00,2017-02-25 14:16:00,
2017-02-25 08:21:00,59.0,37.7,29.99,NNW,338,9.0,12.0,45,0.00,,---,0.01,VWS V15.00,2017-02-25 14:21:00,
2017-02-25 08:26:00,59.3,39.1,29.99,NNE,26,4.0,9.0,47,0.00,,---,0.01,VWS V15.00,2017-02-25 14:26:00,
2017-02-25 08:31:00,59.6,38.2,29.99,North,360,11.0,15.0,45,0.00,,---,0.01,VWS V15.00,2017-02-25 14:31:00,
2017-02-25 08:36:00,59.9,39.1,29.99,NNW,336,6.0,8.0,46,0.00,,---,0.01,VWS V15.00,2017-02-25 14:36:00,
2017-02-25 08:41:00,60.1,36.3,29.99,NE,49,7.0,11.0,41,0.00,,---,0.01,VWS V15.00,2017-02-25 14:41:00,
2017-02-25 08:46:00,60.2,36.4,29.99,NNW,342,14.0,14.0,41,0.00,,---,0.01,VWS V15.00,2017-02-25 14:46:00,
2017-02-25 08:51:00,60.5,36.1,29.99,NNE,15,10.0,10.0,40,0.00,,---,0.01,VWS V15.00,2017-02-25 14:51:00,
2017-02-25 08:56:00,61.0,37.8,29.99,NW,306,2.0,7.0,42,0.00,,---,0.01,VWS V15.00,2017-02-25 14:56:00,
2017-02-25 08:57:00,61.2,38.5,29.99,NW,322,10.0,11.0,43,0.00,,---,0.01,VWS V15.00,2017-02-25 14:57:00,
2017-02-25 09:02:00,61.5,37.6,30.00,North,355,10.0,14.0,41,0.00,,---,0.01,VWS V15.00,2017-02-25 15:02:00,
2017-02-25 09:07:00,61.8,38.5,30.00,NNW,336,5.0,5.0,42,0.00,,---,0.01,VWS V15.00,2017-02-25 15:07:00,
2017-02-25 09:12:00,62.1,37.5,30.00,NNW,338,2.0,2.0,40,0.00,,---,0.01,VWS V15.00,2017-02-25 15:12:00,
2017-02-25 09:17:00,62.3,35.7,30.00,NNE,17,6.0,6.0,37,0.00,,---,0.01,VWS V15.00,2017-02-25 15:17:00,
2017-02-25 09:22:00,62.3,35.0,30.00,North,350,12.0,13.0,36,0.00,,---,0.01,VWS V15.00,2017-02-25 15:22:00,
2017-02-25 09:27:00,62.3,35.0,30.00,NNW,348,11.0,11.0,36,0.00,,---,0.01,VWS V15.00,2017-02-25 15:27:00,
2017-02-25 09:32:00,62.6,35.3,30.01,NE,49,7.0,9.0,36,0.00,,---,0.01,VWS V15.00,2017-02-25 15:32:00,
2017-02-25 09:37:00,62.7,33.2,30.01,North,355,10.0,10.0,33,0.00,,---,0.01,VWS V15.00,2017-02-25 15:37:00,
2017-02-25 09:42:00,62.7,33.2,30.01,North,355,12.0,12.0,33,0.00,,---,0.01,VWS V15.00,2017-02-25 15:42:00,
2017-02-25 09:47:00,62.9,36.9,30.02,North,11,5.0,5.0,38,0.00,,---,0.01,VWS V15.00,2017-02-25 15:47:00,
2017-02-25 09:52:00,63.4,38.0,30.02,WNW,292,4.0,10.0,39,0.00,,---,0.01,VWS V15.00,2017-02-25 15:52:00,
2017-02-25 09:57:00,63.9,37.1,30.02,NE,53,3.0,9.0,37,0.00,,---,0.01,VWS V15.00,2017-02-25 15:57:00,
2017-02-25 10:02:00,63.9,37.1,30.02,North,9,12.0,12.0,37,0.00,,---,0.01,VWS V15.00,2017-02-25 16:02:00,
2017-02-25 10:07:00,64.2,36.7,30.02,NNW,333,7.0,7.0,36,0.00,,---,0.01,VWS V15.00,2017-02-25 16:07:00,
2017-02-25 10:12:00,64.7,37.8,30.02,NNW,333,6.0,6.0,37,0.00,,---,0.01,VWS V15.00,2017-02-25 16:12:00,
2017-02-25 10:17:00,65.2,36.9,30.02,North,355,8.0,8.0,35,0.00,,---,0.01,VWS V15.00,2017-02-25 16:17:00,
2017-02-25 10:22:00,65.5,38.6,30.02,NNE,32,11.0,11.0,37,0.00,,---,0.01,VWS V15.00,2017-02-25 16:22:00,
2017-02-25 10:27:00,65.8,37.4,30.02,North,5,0.0,2.0,35,0.00,,---,0.01,VWS V15.00,2017-02-25 16:27:00,
2017-02-25 10:32:00,65.6,36.5,30.02,North,351,16.0,16.0,34,0.00,,---,0.01,VWS V15.00,2017-02-25 16:32:00,
2017-02-25 10:37:00,65.3,35.5,30.02,North,9,7.0,7.0,33,0.00,,---,0.01,VWS V15.00,2017-02-25 16:37:00,
2017-02-25 10:42:00,65.3,35.5,30.02,NE,43,3.0,6.0,33,0.00,,---,0.01,VWS V15.00,2017-02-25 16:42:00,
2017-02-25 10:47:00,65.8,38.8,30.02,NNW,336,3.0,7.0,37,0.00,,---,0.01,VWS V15.00,2017-02-25 16:47:00,
2017-02-25 10:52:00,66.3,36.4,30.02,ENE,67,5.0,6.0,33,0.00,,---,0.01,VWS V15.00,2017-02-25 16:52:00,
2017-02-25 10:57:00,66.6,37.4,30.02,WNW,298,2.0,3.0,34,0.00,,---,0.01,VWS V15.00,2017-02-25 16:57:00,
2017-02-25 11:02:00,67.1,37.1,30.02,North,355,5.0,5.0,33,0.00,,---,0.01,VWS V15.00,2017-02-25 17:02:00,
2017-02-25 11:07:00,67.6,36.7,30.02,NE,53,10.0,12.0,32,0.00,,---,0.01,VWS V15.00,2017-02-25 17:07:00,
2017-02-25 11:12:00,67.6,37.5,30.02,WNW,282,3.0,3.0,33,0.00,,---,0.01,VWS V15.00,2017-02-25 17:12:00,
2017-02-25 11:17:00,67.8,37.7,30.02,WNW,299,4.0,4.0,33,0.00,,---,0.01,VWS V15.00,2017-02-25 17:17:00,
2017-02-25 11:22:00,67.8,36.1,30.02,North,355,2.0,2.0,31,0.00,,---,0.01,VWS V15.00,2017-02-25 17:22:00,
2017-02-25 11:27:00,68.1,37.9,30.02,NNW,335,9.0,10.0,33,0.00,,---,0.01,VWS V15.00,2017-02-25 17:27:00,
2017-02-25 11:31:00,68.1,35.5,30.02,NW,304,0.0,1.0,30,0.00,,---,0.01,VWS V15.00,2017-02-25 17:31:00,
2017-02-25 11:36:00,68.3,38.1,30.02,NNW,343,1.0,1.0,33,0.00,,---,0.01,VWS V15.00,2017-02-25 17:36:00,
2017-02-25 11:41:00,69.1,35.5,30.02,NNW,334,7.0,7.0,29,0.00,,---,0.01,VWS V15.00,2017-02-25 17:41:00,
2017-02-25 11:46:00,69.4,35.8,30.02,NW,315,10.0,10.0,29,0.00,,---,0.01,VWS V15.00,2017-02-25 17:46:00,
2017-02-25 11:51:00,70.1,35.5,30.02,NNW,338,0.0,6.0,28,0.00,,---,0.01,VWS V15.00,2017-02-25 17:51:00,
2017-02-25 11:56:00,70.3,35.7,30.02,NNW,333,13.0,13.0,28,0.00,,---,0.01,VWS V15.00,2017-02-25 17:56:00,
2017-02-25 12:01:00,69.4,35.8,30.02,North,5,11.0,13.0,29,0.00,,---,0.01,VWS V15.00,2017-02-25 18:01:00,
2017-02-25 12:06:00,69.1,35.5,30.02,North,5,6.0,9.0,29,0.00,,---,0.01,VWS V15.00,2017-02-25 18:06:00,
2017-02-25 12:11:00,69.3,36.6,30.02,North,5,5.0,10.0,30,0.00,,---,0.01,VWS V15.00,2017-02-25 18:11:00,
2017-02-25 12:16:00,69.8,36.1,30.02,North,5,12.0,12.0,29,0.00,,---,0.01,VWS V15.00,2017-02-25 18:16:00,
2017-02-25 12:21:00,69.9,35.3,30.02,NNW,340,0.0,8.0,28,0.00,,---,0.01,VWS V15.00,2017-02-25 18:21:00,
2017-02-25 12:26:00,70.6,35.0,30.02,WSW,253,4.0,9.0,27,0.00,,---,0.01,VWS V15.00,2017-02-25 18:26:00,
2017-02-25 12:31:00,70.9,35.3,30.01,NW,323,4.0,11.0,27,0.00,,---,0.01,VWS V15.00,2017-02-25 18:31:00,
2017-02-25 12:36:00,70.8,35.2,30.01,North,5,1.0,6.0,27,0.00,,---,0.01,VWS V15.00,2017-02-25 18:36:00,
2017-02-25 12:41:00,71.1,34.5,30.01,NNE,32,11.0,16.0,26,0.00,,---,0.01,VWS V15.00,2017-02-25 18:41:00,
2017-02-25 12:46:00,70.6,34.1,30.01,North,349,5.0,13.0,26,0.00,,---,0.01,VWS V15.00,2017-02-25 18:46:00,
2017-02-25 12:51:00,70.4,34.9,30.01,NNW,335,5.0,13.0,27,0.00,,---,0.01,VWS V15.00,2017-02-25 18:51:00,
2017-02-25 12:56:00,70.3,32.8,30.01,NNE,29,0.0,12.0,25,0.00,,---,0.01,VWS V15.00,2017-02-25 18:56:00,
2017-02-25 13:01:00,70.3,34.8,30.01,WNW,284,2.0,5.0,27,0.00,,---,0.01,VWS V15.00,2017-02-25 19:01:00,
2017-02-25 13:06:00,70.8,35.2,30.01,North,350,9.0,9.0,27,0.00,,---,0.01,VWS V15.00,2017-02-25 19:06:00,
2017-02-25 13:11:00,71.1,34.5,30.01,WSW,242,3.0,9.0,26,0.00,,---,0.01,VWS V15.00,2017-02-25 19:11:00,
2017-02-25 13:16:00,71.3,32.7,30.00,NW,312,6.0,13.0,24,0.00,,---,0.01,VWS V15.00,2017-02-25 19:16:00,
2017-02-25 13:21:00,71.5,31.8,30.00,NW,311,0.0,11.0,23,0.00,,---,0.01,VWS V15.00,2017-02-25 19:21:00,
2017-02-25 13:26:00,71.6,30.8,30.00,North,355,1.0,9.0,22,0.00,,---,0.01,VWS V15.00,2017-02-25 19:26:00,
2017-02-25 13:31:00,71.6,31.9,30.00,NW,317,0.0,6.0,23,0.00,,---,0.01,VWS V15.00,2017-02-25 19:31:00,
2017-02-25 13:36:00,71.8,32.0,30.00,NW,305,1.0,13.0,23,0.00,,---,0.01,VWS V15.00,2017-02-25 19:36:00,
2017-02-25 13:41:00,71.8,30.9,30.00,West,280,1.0,7.0,22,0.00,,---,0.01,VWS V15.00,2017-02-25 19:41:00,
2017-02-25 13:51:00,71.8,30.9,30.00,NW,318,3.0,4.0,22,0.00,,---,0.01,VWS V15.00,2017-02-25 19:51:00,
2017-02-25 13:56:00,72.0,30.0,30.00,NNW,331,8.0,8.0,21,0.00,,---,0.01,VWS V15.00,2017-02-25 19:56:00,
2017-02-25 14:01:00,71.5,30.7,30.00,SW,230,0.0,6.0,22,0.00,,---,0.01,VWS V15.00,2017-02-25 20:01:00,
2017-02-25 14:06:00,72.0,32.2,30.00,NW,314,2.0,4.0,23,0.00,,---,0.01,VWS V15.00,2017-02-25 20:06:00,
2017-02-25 14:11:00,72.3,29.0,30.00,North,355,3.0,6.0,20,0.00,,---,0.01,VWS V15.00,2017-02-25 20:11:00,
2017-02-25 14:16:00,72.5,29.2,30.00,NNW,342,7.0,7.0,20,0.00,,---,0.01,VWS V15.00,2017-02-25 20:16:00,
2017-02-25 14:21:00,72.7,26.8,30.00,NNE,19,2.0,10.0,18,0.00,,---,0.01,VWS V15.00,2017-02-25 20:21:00,
2017-02-25 14:26:00,72.7,26.8,30.00,NW,315,5.0,14.0,18,0.00,,---,0.01,VWS V15.00,2017-02-25 20:26:00,
2017-02-25 14:31:00,72.1,27.6,30.00,North,5,10.0,11.0,19,0.00,,---,0.01,VWS V15.00,2017-02-25 20:31:00,
2017-02-25 14:36:00,71.6,27.2,30.00,NNW,337,15.0,15.0,19,0.00,,---,0.01,VWS V15.00,2017-02-25 20:36:00,
2017-02-25 14:41:00,71.3,28.2,30.00,North,355,0.0,6.0,20,0.00,,---,0.01,VWS V15.00,2017-02-25 20:41:00,
2017-02-25 14:46:00,71.5,27.1,30.00,NNW,346,9.0,9.0,19,0.00,,---,0.01,VWS V15.00,2017-02-25 20:46:00,
2017-02-25 14:51:00,71.6,28.4,30.00,NNW,333,2.0,4.0,20,0.00,,---,0.01,VWS V15.00,2017-02-25 20:51:00,
2017-02-25 14:56:00,71.8,28.6,30.00,WNW,292,7.0,7.0,20,0.00,,---,0.01,VWS V15.00,2017-02-25 20:56:00,
2017-02-25 14:59:00,72.0,27.5,30.01,NNW,330,12.0,13.0,19,0.00,,---,0.01,VWS V15.00,2017-02-25 20:59:00,
2017-02-25 15:04:00,71.8,27.4,30.01,NNW,327,0.0,0.0,19,0.00,,---,0.01,VWS V15.00,2017-02-25 21:04:00,
2017-02-25 15:09:00,71.8,26.0,30.01,NNW,327,9.0,10.0,18,0.00,,---,0.01,VWS V15.00,2017-02-25 21:09:00,
2017-02-25 15:14:00,71.6,27.2,30.01,WSW,242,0.0,1.0,19,0.00,,---,0.01,VWS V15.00,2017-02-25 21:14:00,
2017-02-25 15:19:00,71.6,27.2,30.01,NNE,26,11.0,14.0,19,0.00,,---,0.01,VWS V15.00,2017-02-25 21:19:00,
2017-02-25 15:24:00,70.9,25.3,30.01,NNW,334,8.0,8.0,18,0.00,,---,0.01,VWS V15.00,2017-02-25 21:24:00,
2017-02-25 15:29:00,70.9,25.3,30.01,NNW,333,10.0,10.0,18,0.00,,---,0.01,VWS V15.00,2017-02-25 21:29:00,
2017-02-25 15:34:00,71.1,25.5,30.01,NW,325,14.0,14.0,18,0.00,,---,0.01,VWS V15.00,2017-02-25 21:34:00,
2017-02-25 15:39:00,70.9,25.3,30.01,NNW,331,4.0,5.0,18,0.00,,---,0.01,VWS V15.00,2017-02-25 21:39:00,
2017-02-25 15:44:00,70.9,25.3,30.01,North,355,9.0,10.0,18,0.00,,---,0.01,VWS V15.00,2017-02-25 21:44:00,
2017-02-25 15:49:00,71.1,25.5,30.01,ESE,104,0.0,0.0,18,0.00,,---,0.01,VWS V15.00,2017-02-25 21:49:00,
2017-02-25 15:54:00,71.1,25.5,30.01,NW,319,4.0,6.0,18,0.00,,---,0.01,VWS V15.00,2017-02-25 21:54:00,
2017-02-25 15:58:00,70.9,24.0,30.01,North,350,10.0,13.0,17,0.00,,---,0.01,VWS V15.00,2017-02-25 21:58:00,
2017-02-25 16:03:00,70.8,25.2,30.02,North,351,3.0,5.0,18,0.00,,---,0.01,VWS V15.00,2017-02-25 22:03:00,
2017-02-25 16:08:00,70.4,24.9,30.02,West,263,5.0,5.0,18,0.00,,---,0.01,VWS V15.00,2017-02-25 22:08:00,
2017-02-25 16:13:00,70.4,26.2,30.02,SW,220,2.0,13.0,19,0.00,,---,0.01,VWS V15.00,2017-02-25 22:13:00,
2017-02-25 16:18:00,70.3,26.1,30.02,WNW,302,5.0,11.0,19,0.00,,---,0.01,VWS V15.00,2017-02-25 22:18:00,
2017-02-25 16:23:00,70.3,26.1,30.02,NW,309,3.0,3.0,19,0.00,,---,0.01,VWS V15.00,2017-02-25 22:23:00,
2017-02-25 16:28:00,70.1,26.0,30.02,NNE,16,6.0,12.0,19,0.00,,---,0.01,VWS V15.00,2017-02-25 22:28:00,
2017-02-25 16:33:00,69.8,25.7,30.02,NNW,333,5.0,12.0,19,0.00,,---,0.01,VWS V15.00,2017-02-25 22:33:00,
2017-02-25 16:38:00,69.6,25.5,30.02,NNW,346,12.0,15.0,19,0.00,,---,0.01,VWS V15.00,2017-02-25 22:38:00,
2017-02-25 16:43:00,69.4,25.4,30.02,NW,314,0.0,4.0,19,0.00,,---,0.01,VWS V15.00,2017-02-25 22:43:00,
2017-02-25 16:48:00,69.3,25.3,30.03,NW,311,0.0,9.0,19,0.00,,---,0.01,VWS V15.00,2017-02-25 22:48:00,
2017-02-25 16:53:00,68.9,25.0,30.03,North,360,6.0,10.0,19,0.00,,---,0.01,VWS V15.00,2017-02-25 22:53:00,
2017-02-25 16:58:00,68.4,24.6,30.03,North,360,2.0,11.0,19,0.00,,---,0.01,VWS V15.00,2017-02-25 22:58:00,
2017-02-25 17:03:00,68.1,24.3,30.03,NNE,25,0.0,4.0,19,0.00,,---,0.01,VWS V15.00,2017-02-25 23:03:00,
2017-02-25 17:08:00,67.9,25.4,30.03,North,5,2.0,5.0,20,0.00,,---,0.01,VWS V15.00,2017-02-25 23:08:00,
2017-02-25 17:13:00,67.8,25.3,30.03,West,268,0.0,1.0,20,0.00,,---,0.01,VWS V15.00,2017-02-25 23:13:00,
2017-02-25 17:18:00,67.4,25.0,30.04,North,360,2.0,10.0,20,0.00,,---,0.01,VWS V15.00,2017-02-25 23:18:00,
2017-02-25 17:23:00,66.9,26.9,30.04,NW,311,1.0,5.0,22,0.00,,---,0.01,VWS V15.00,2017-02-25 23:23:00,
2017-02-25 17:28:00,66.6,27.7,30.04,NNE,19,1.0,2.0,23,0.00,,---,0.01,VWS V15.00,2017-02-25 23:28:00,
2017-02-25 17:33:00,66.1,27.2,30.04,North,360,2.0,9.0,23,0.00,,---,0.01,VWS V15.00,2017-02-25 23:33:00,
2017-02-25 17:38:00,65.8,29.0,30.04,North,5,0.0,2.0,25,0.00,,---,0.01,VWS V15.00,2017-02-25 23:38:00,
2017-02-25 17:43:00,65.3,28.6,30.04,NNE,13,0.0,5.0,25,0.00,,---,0.01,VWS V15.00,2017-02-25 23:43:00,
2017-02-25 17:48:00,65.0,29.3,30.05,NNE,13,3.0,5.0,26,0.00,,---,0.01,VWS V15.00,2017-02-25 23:48:00,
2017-02-25 17:53:00,64.5,28.9,30.05,NNE,31,4.0,6.0,26,0.00,,---,0.01,VWS V15.00,2017-02-25 23:53:00,
2017-02-25 17:58:00,64.0,29.4,30.05,North,9,4.0,7.0,27,0.00,,---,0.01,VWS V15.00,2017-02-25 23:58:00,
2017-02-25 18:03:00,63.5,29.0,30.05,NNE,15,6.0,6.0,27,0.00,,---,0.01,VWS V15.00,2017-02-26 00:03:00,
2017-02-25 18:08:00,63.2,28.7,30.05,North,9,5.0,7.0,27,0.00,,---,0.01,VWS V15.00,2017-02-26 00:08:00,
2017-02-25 18:13:00,62.7,29.1,30.05,NE,38,0.0,1.0,28,0.00,,---,0.01,VWS V15.00,2017-02-26 00:13:00,
2017-02-25 18:18:00,62.4,28.0,30.06,North,9,0.0,2.0,27,0.00,,---,0.01,VWS V15.00,2017-02-26 00:18:00,
2017-02-25 18:23:00,62.1,28.6,30.06,NNE,12,0.0,0.0,28,0.00,,---,0.01,VWS V15.00,2017-02-26 00:23:00,
2017-02-25 18:28:00,62.0,29.4,30.06,NNE,13,0.0,0.0,29,0.00,,---,0.01,VWS V15.00,2017-02-26 00:28:00,
2017-02-25 18:33:00,61.6,29.1,30.06,NNE,13,0.0,0.0,29,0.00,,---,0.01,VWS V15.00,2017-02-26 00:33:00,
2017-02-25 18:38:00,61.2,29.5,30.06,NNE,13,0.0,0.0,30,0.00,,---,0.01,VWS V15.00,2017-02-26 00:38:00,
2017-02-25 18:43:00,60.9,29.3,30.06,NNE,18,0.0,1.0,30,0.00,,---,0.01,VWS V15.00,2017-02-26 00:43:00,
2017-02-25 18:48:00,60.5,29.7,30.06,NNE,18,0.0,0.0,31,0.00,,---,0.01,VWS V15.00,2017-02-26 00:48:00,
2017-02-25 18:53:00,60.2,29.5,30.06,NNE,22,0.0,4.0,31,0.00,,---,0.01,VWS V15.00,2017-02-26 00:53:00,
2017-02-25 18:58:00,59.9,29.2,30.06,NNE,15,0.0,0.0,31,0.00,,---,0.01,VWS V15.00,2017-02-26 00:58:00,
2017-02-25 19:03:00,59.6,29.7,30.06,NNE,15,0.0,0.0,32,0.00,,---,0.01,VWS V15.00,2017-02-26 01:03:00,
2017-02-25 19:08:00,59.5,29.6,30.06,NNE,15,2.0,2.0,32,0.00,,---,0.01,VWS V15.00,2017-02-26 01:08:00,
2017-02-25 19:13:00,59.2,30.9,30.06,North,5,0.0,0.0,34,0.00,,---,0.01,VWS V15.00,2017-02-26 01:13:00,
2017-02-25 19:18:00,58.9,30.6,30.07,NNE,13,0.0,1.0,34,0.00,,---,0.01,VWS V15.00,2017-02-26 01:18:00,
2017-02-25 19:23:00,58.4,30.9,30.07,NNE,31,2.0,3.0,35,0.00,,---,0.01,VWS V15.00,2017-02-26 01:23:00,
2017-02-25 19:28:00,58.1,30.6,30.07,NNE,29,0.0,0.0,35,0.00,,---,0.01,VWS V15.00,2017-02-26 01:28:00,
2017-02-25 19:33:00,58.0,31.2,30.08,NNE,29,0.0,0.0,36,0.00,,---,0.01,VWS V15.00,2017-02-26 01:33:00,
2017-02-25 19:38:00,57.6,30.9,30.08,NNE,29,0.0,0.0,36,0.00,,---,0.01,VWS V15.00,2017-02-26 01:38:00,
2017-02-25 19:43:00,57.5,31.5,30.08,NNE,26,0.0,0.0,37,0.00,,---,0.01,VWS V15.00,2017-02-26 01:43:00,
2017-02-25 19:48:00,57.3,31.9,30.08,NNE,26,0.0,0.0,38,0.00,,---,0.01,VWS V15.00,2017-02-26 01:48:00,
2017-02-25 19:53:00,57.0,32.3,30.08,NNE,26,0.0,0.0,39,0.00,,---,0.01,VWS V15.00,2017-02-26 01:53:00,
2017-02-25 19:58:00,56.9,32.2,30.08,NNE,26,0.0,0.0,39,0.00,,---,0.01,VWS V15.00,2017-02-26 01:58:00,
2017-02-25 20:03:00,56.5,33.7,30.09,NNE,26,0.0,0.0,42,0.00,,---,0.01,VWS V15.00,2017-02-26 02:03:00,
2017-02-25 20:08:00,56.2,34.0,30.09,NNE,26,0.0,0.0,43,0.00,,---,0.01,VWS V15.00,2017-02-26 02:08:00,
2017-02-25 20:13:00,55.7,33.0,30.09,NNE,26,0.0,0.0,42,0.00,,---,0.01,VWS V15.00,2017-02-26 02:13:00,
2017-02-25 20:18:00,55.3,32.6,30.09,NNE,26,0.0,3.0,42,0.00,,---,0.01,VWS V15.00,2017-02-26 02:18:00,
2017-02-25 20:23:00,55.1,33.0,30.09,NNE,17,0.0,3.0,43,0.00,,---,0.01,VWS V15.00,2017-02-26 02:23:00,
2017-02-25 20:28:00,55.0,32.9,30.09,NNE,30,0.0,0.0,43,0.00,,---,0.01,VWS V15.00,2017-02-26 02:28:00,
2017-02-25 20:33:00,54.8,33.3,30.09,NNE,27,1.0,3.0,44,0.00,,---,0.01,VWS V15.00,2017-02-26 02:33:00,
2017-02-25 20:38:00,54.7,33.2,30.09,NNE,17,6.0,6.0,44,0.00,,---,0.01,VWS V15.00,2017-02-26 02:38:00,
2017-02-25 20:43:00,54.5,33.0,30.09,NNE,14,0.0,3.0,44,0.00,,---,0.01,VWS V15.00,2017-02-26 02:43:00,
2017-02-25 20:48:00,54.4,33.5,30.09,NNE,28,0.0,0.0,45,0.00,,---,0.01,VWS V15.00,2017-02-26 02:48:00,
2017-02-25 20:53:00,54.2,33.3,30.09,NNE,28,0.0,0.0,45,0.00,,---,0.01,VWS V15.00,2017-02-26 02:53:00,
2017-02-25 20:58:00,54.1,33.2,30.09,NNE,28,0.0,0.0,45,0.00,,---,0.01,VWS V15.00,2017-02-26 02:58:00,
2017-02-25 21:03:00,53.9,33.6,30.10,NNE,28,0.0,0.0,46,0.00,,---,0.01,VWS V15.00,2017-02-26 03:03:00,
2017-02-25 21:08:00,53.6,33.9,30.10,NNE,28,0.0,0.0,47,0.00,,---,0.01,VWS V15.00,2017-02-26 03:08:00,
2017-02-25 21:13:00,53.5,34.3,30.10,NNE,28,0.0,0.0,48,0.00,,---,0.01,VWS V15.00,2017-02-26 03:13:00,
2017-02-25 21:18:00,53.2,34.5,30.10,NNE,28,0.0,0.0,49,0.00,,---,0.01,VWS V15.00,2017-02-26 03:18:00,
2017-02-25 21:23:00,53.1,34.5,30.10,NE,34,0.0,0.0,49,0.00,,---,0.01,VWS V15.00,2017-02-26 03:23:00,
2017-02-25 21:28:00,52.8,34.7,30.10,NNE,22,0.0,0.0,50,0.00,,---,0.01,VWS V15.00,2017-02-26 03:28:00,
2017-02-25 21:33:00,52.6,35.0,30.10,NNE,17,0.0,0.0,51,0.00,,---,0.01,VWS V15.00,2017-02-26 03:33:00,
2017-02-25 21:38:00,52.3,34.7,30.10,NNE,19,0.0,0.0,51,0.00,,---,0.01,VWS V15.00,2017-02-26 03:38:00,
2017-02-25 21:43:00,52.2,34.6,30.10,NNE,22,0.0,4.0,51,0.00,,---,0.01,VWS V15.00,2017-02-26 03:43:00,
2017-02-25 21:48:00,52.0,34.5,30.10,North,5,0.0,0.0,51,0.00,,---,0.01,VWS V15.00,2017-02-26 03:48:00,
2017-02-25 21:53:00,51.9,34.4,30.10,NNE,32,3.0,3.0,51,0.00,,---,0.01,VWS V15.00,2017-02-26 03:53:00,
2017-02-25 21:58:00,51.7,34.2,30.10,North,5,0.0,2.0,51,0.00,,---,0.01,VWS V15.00,2017-02-26 03:58:00,
2017-02-25 22:03:00,51.6,34.1,30.11,North,5,0.0,0.0,51,0.00,,---,0.01,VWS V15.00,2017-02-26 04:03:00,
2017-02-25 22:08:00,51.4,33.9,30.11,NNW,347,5.0,5.0,51,0.00,,---,0.01,VWS V15.00,2017-02-26 04:08:00,
2017-02-25 22:13:00,51.4,33.9,30.11,NNE,24,3.0,4.0,51,0.00,,---,0.01,VWS V15.00,2017-02-26 04:13:00,
2017-02-25 22:18:00,51.4,33.4,30.11,NNE,22,0.0,7.0,50,0.00,,---,0.01,VWS V15.00,2017-02-26 04:18:00,
2017-02-25 22:23:00,51.3,33.3,30.11,NNW,345,5.0,7.0,50,0.00,,---,0.01,VWS V15.00,2017-02-26 04:23:00,
2017-02-25 22:28:00,51.3,32.8,30.11,North,360,6.0,6.0,49,0.00,,---,0.01,VWS V15.00,2017-02-26 04:28:00,
2017-02-25 22:33:00,51.3,32.8,30.11,North,5,0.0,6.0,49,0.00,,---,0.01,VWS V15.00,2017-02-26 04:33:00,
2017-02-25 22:38:00,51.3,32.8,30.11,North,360,2.0,5.0,49,0.00,,---,0.01,VWS V15.00,2017-02-26 04:38:00,
2017-02-25 22:43:00,51.1,32.6,30.11,NNE,24,1.0,5.0,49,0.00,,---,0.01,VWS V15.00,2017-02-26 04:43:00,
2017-02-25 22:48:00,51.0,32.0,30.11,NNE,26,4.0,5.0,48,0.00,,---,0.01,VWS V15.00,2017-02-26 04:48:00,
2017-02-25 22:53:00,50.8,32.3,30.11,NNE,31,2.0,6.0,49,0.00,,---,0.01,VWS V15.00,2017-02-26 04:53:00,
2017-02-25 22:58:00,50.7,32.2,30.11,NNW,327,5.0,5.0,49,0.00,,---,0.01,VWS V15.00,2017-02-26 04:58:00,
2017-02-25 23:03:00,50.5,32.1,30.11,NNE,33,3.0,3.0,49,0.00,,---,0.01,VWS V15.00,2017-02-26 05:03:00,